LFMH 211130Z AUTO 33010KT 300V360 9999 SCT020 BKN033 BKN042 02/M02 Q1031

ElémentsDécodage
LFMH Station météo située sur l'aérodrome de SAINT-ETIENNE Bouthéon
211130Z émis le 21 du mois à 11h30 UTC
AUTO Bulletin édité par un automate
33010KT vent du 330°, 10 noeuds
300V360 vent de direction variable entre 300° et 360°
9999 visibilité horizontale supérieure à 10 Km
SCT020 nuages épars (3/8 à 4/8) à 2000 pieds
BKN033 nuages morcelés (5/8 à 7/8) à 3300 pieds
BKN042 nuages morcelés (5/8 à 7/8) à 4200 pieds
02/M02 température 02°C, point de rosée -02°C
 soit une humidité relative de 75%
Q1031 la pression au niveau de la mer (QNH) est de 1031 hPa